createdAt,value
2023-05-22T00:01:27.464Z,3.15
2023-05-22T00:11:35.742Z,2.65
2023-05-22T00:21:53.511Z,3.33
2023-05-22T00:32:49.954Z,3.40
2023-05-22T00:43:53.602Z,4.30
2023-05-22T00:54:21.137Z,3.13
2023-05-22T01:15:19.905Z,2.30
2023-05-22T01:38:07.037Z,5.55
2023-05-22T02:00:00.648Z,2.80
2023-05-22T02:10:11.033Z,4.32
2023-05-22T02:20:19.849Z,4.22
2023-05-22T02:30:26.923Z,3.40
2023-05-22T02:40:36.914Z,6.05
2023-05-22T02:50:45.163Z,3.67
2023-05-22T03:00:54.615Z,4.68
2023-05-22T03:11:02.156Z,5.25
2023-05-22T03:21:10.901Z,4.55
2023-05-22T03:31:18.766Z,7.00
2023-05-22T03:41:47.991Z,3.95
2023-05-22T03:51:55.567Z,4.03
2023-05-22T04:02:04.363Z,5.03
2023-05-22T04:12:11.960Z,4.35
2023-05-22T04:22:20.487Z,11.02
2023-05-22T04:32:28.503Z,7.10
2023-05-22T04:42:38.253Z,10.23
2023-05-22T04:52:45.046Z,6.80
2023-05-22T05:02:53.852Z,6.50
2023-05-22T05:13:00.919Z,6.13
2023-05-22T05:23:11.181Z,5.70
2023-05-22T05:33:18.108Z,3.92
2023-05-22T05:43:47.236Z,4.85
2023-05-22T05:53:54.198Z,3.30
2023-05-22T06:04:04.341Z,4.22
2023-05-22T06:14:13.101Z,2.90
2023-05-22T06:24:21.769Z,3.10
2023-05-22T06:34:30.677Z,3.20
2023-05-22T06:44:42.049Z,3.28
2023-05-22T06:54:49.112Z,2.30
2023-05-22T07:04:57.760Z,2.63
2023-05-22T07:15:33.779Z,2.13
2023-05-22T07:25:45.291Z,2.08
2023-05-22T07:46:42.530Z,2.17
2023-05-22T07:56:58.597Z,2.58
2023-05-22T08:07:10.868Z,2.67
2023-05-22T08:17:23.344Z,2.88
2023-05-22T08:27:39.346Z,1.95
2023-05-22T08:37:58.292Z,2.38
2023-05-22T08:48:08.680Z,2.28
2023-05-22T08:58:17.092Z,3.20
2023-05-22T09:08:34.918Z,1.85
2023-05-22T09:18:42.110Z,3.00
2023-05-22T09:28:53.259Z,2.78
2023-05-22T09:39:02.594Z,1.98
2023-05-22T09:49:43.959Z,3.20
2023-05-22T10:00:03.222Z,2.60
2023-05-22T10:22:07.644Z,2.17
2023-05-22T10:32:27.923Z,2.22
2023-05-22T10:42:42.344Z,1.85
2023-05-22T10:53:12.522Z,2.33
2023-05-22T11:03:19.469Z,2.78
2023-05-22T11:13:30.808Z,1.77
2023-05-22T11:23:40.935Z,3.10
2023-05-22T11:33:52.156Z,2.33
2023-05-22T11:43:58.979Z,2.28
2023-05-22T11:54:08.650Z,2.47
2023-05-22T12:04:18.195Z,2.08
2023-05-22T12:14:35.420Z,1.90
2023-05-22T12:24:42.793Z,2.17
2023-05-22T12:34:54.450Z,1.90
2023-05-22T12:45:01.502Z,1.95
2023-05-22T12:55:13.264Z,1.90
2023-05-22T13:05:20.396Z,1.58
2023-05-22T13:15:32.220Z,1.65
2023-05-22T13:25:39.353Z,1.85
2023-05-22T13:35:48.012Z,1.90
2023-05-22T13:45:54.930Z,1.33
2023-05-22T13:56:04.116Z,1.92
2023-05-22T14:06:11.271Z,1.95
2023-05-22T14:16:19.765Z,2.30
2023-05-22T14:26:26.916Z,2.20
2023-05-22T14:36:35.552Z,3.80
2023-05-22T14:46:49.858Z,3.60
2023-05-22T14:56:58.953Z,7.93
2023-05-22T15:07:05.987Z,6.93
2023-05-22T15:17:14.486Z,6.18
2023-05-22T15:27:21.291Z,6.88
2023-05-22T15:37:32.582Z,8.35
2023-05-22T15:47:39.581Z,6.65
2023-05-22T15:57:48.661Z,5.80
2023-05-22T16:07:55.636Z,4.32
2023-05-22T16:18:04.873Z,5.75
2023-05-22T16:28:11.946Z,4.40
2023-05-22T16:38:20.640Z,5.10
2023-05-22T16:48:29.049Z,4.90
2023-05-22T16:58:37.868Z,3.38
2023-05-22T17:08:45.171Z,6.15
2023-05-22T17:18:54.934Z,4.10
2023-05-22T17:29:02.434Z,4.65
2023-05-22T17:39:10.962Z,3.17
2023-05-22T17:49:18.009Z,3.42
2023-05-22T17:59:27.672Z,4.90
2023-05-22T18:09:38.310Z,8.32
2023-05-22T18:19:50.033Z,4.35
2023-05-22T18:29:57.393Z,5.15
2023-05-22T18:40:10.375Z,5.30
2023-05-22T18:50:17.296Z,6.43
2023-05-22T19:00:26.542Z,7.40
2023-05-22T19:10:33.949Z,4.47
2023-05-22T19:20:42.629Z,4.25
2023-05-22T19:30:49.898Z,8.50
2023-05-22T19:40:58.574Z,7.15
2023-05-22T19:51:06.067Z,9.00
2023-05-22T20:01:15.039Z,6.45
2023-05-22T20:11:22.641Z,5.22
2023-05-22T20:21:31.200Z,4.30
2023-05-22T20:31:38.204Z,5.20
2023-05-22T20:41:53.240Z,5.20
2023-05-22T20:52:02.861Z,4.43
